Time;durP1;ratioP1;P1;durP2;ratioP2;P2;SDS_P1;SDS_P2;PMS_P1;PMS_P2;Temp;Humidity;BMP_temperature;BMP_pressure;BME280_temperature;BME280_humidity;BME280_pressure;Samples;Min_cycle;Max_cycle;Signal;HPM_P1;HPM_P2
2022/01/06 04:17:18;;;;;;;9.60;5.90;;;;;;;4.56;100.00;98701.09;715721;1173;23730;-75
2022/01/06 04:34:08;;;;;;;8.48;5.53;;;;;;;4.55;100.00;98721.03;714106;1175;113256;-75
2022/01/06 05:05:37;;;;;;;6.68;4.88;;;;;;;4.63;100.00;98777.51;714128;1199;114635;-75
2022/01/06 05:20:42;;;;;;;6.23;3.83;;;;;;;4.61;100.00;98797.62;713902;1176;113185;-75
2022/01/06 05:35:46;;;;;;;7.58;4.08;;;;;;;4.42;100.00;98825.18;714026;1174;112723;-77
2022/01/06 05:51:18;;;;;;;5.03;2.90;;;;;;;4.39;100.00;98861.77;715123;1175;113193;-77
2022/01/06 06:06:24;;;;;;;7.30;4.03;;;;;;;4.44;100.00;98880.39;714586;1177;113305;-80
2022/01/06 06:21:35;;;;;;;8.55;4.53;;;;;;;4.41;100.00;98916.17;716109;1177;113118;-79
2022/01/06 06:36:38;;;;;;;5.37;3.37;;;;;;;4.39;100.00;98950.06;714503;1174;113190;-80
2022/01/06 06:51:40;;;;;;;8.48;3.60;;;;;;;4.39;100.00;98976.03;714471;1174;113499;-80
2022/01/06 07:06:57;;;;;;;5.30;3.00;;;;;;;4.36;100.00;99020.44;714616;1176;113504;-80
2022/01/06 07:22:05;;;;;;;4.63;2.58;;;;;;;4.15;100.00;99036.81;714181;1175;113331;-79
2022/01/06 07:37:13;;;;;;;6.23;3.30;;;;;;;3.90;100.00;99063.10;714567;1200;113957;-82
2022/01/06 07:52:15;;;;;;;82.68;27.10;;;;;;;3.91;100.00;99090.70;715765;1199;113380;-85
2022/01/06 08:07:17;;;;;;;40.08;18.25;;;;;;;3.81;100.00;99095.78;714185;1178;113839;-80
2022/01/06 08:22:20;;;;;;;61.08;37.25;;;;;;;3.81;100.00;99113.94;713866;1202;113533;-77
2022/01/06 08:37:23;;;;;;;19.30;12.10;;;;;;;3.73;100.00;99137.89;714919;1200;113521;-77
2022/01/06 08:52:25;;;;;;;50.57;17.33;;;;;;;3.31;100.00;99154.05;714098;1199;114229;-76
2022/01/06 09:07:27;;;;;;;43.43;19.80;;;;;;;3.11;100.00;99186.63;714166;1200;114168;-76
2022/01/06 09:22:29;;;;;;;331.50;114.25;;;;;;;2.84;100.00;99241.33;714266;1174;113803;-77
2022/01/06 09:37:35;;;;;;;392.50;241.53;;;;;;;2.75;100.00;99271.30;714199;1203;114676;-76
2022/01/06 09:52:38;;;;;;;74.10;28.07;;;;;;;2.79;100.00;99301.22;714268;1202;115547;-77
2022/01/06 10:07:41;;;;;;;266.63;82.08;;;;;;;2.69;100.00;99315.76;714351;1199;115132;-84
2022/01/06 10:22:52;;;;;;;234.60;82.68;;;;;;;2.62;100.00;99348.22;714889;1177;113816;-83
2022/01/06 10:37:59;;;;;;;46.50;16.68;;;;;;;2.26;98.60;99366.18;715007;1200;114578;-82
2022/01/06 10:53:08;;;;;;;39.53;14.45;;;;;;;2.16;96.82;99393.61;716091;1199;114535;-83
2022/01/06 11:08:12;;;;;;;84.70;24.90;;;;;;;2.15;96.52;99413.50;715859;1193;113565;-81
2022/01/06 11:23:22;;;;;;;13.50;6.38;;;;;;;2.35;94.12;99424.27;714432;1199;113475;-81
2022/01/06 11:38:27;;;;;;;25.95;10.30;;;;;;;2.48;93.67;99469.11;714251;1177;113746;-78
2022/01/06 11:53:31;;;;;;;83.55;30.68;;;;;;;2.44;92.45;99475.43;714631;1200;114566;-76
2022/01/06 12:08:40;;;;;;;53.50;24.00;;;;;;;2.20;90.86;99490.00;714289;1187;114194;-76
2022/01/06 12:23:43;;;;;;;23.35;10.55;;;;;;;2.18;87.98;99517.72;714076;1177;113365;-80
2022/01/06 12:38:45;;;;;;;21.58;8.68;;;;;;;2.14;83.82;99528.28;714768;1177;114168;-83
2022/01/06 12:53:59;;;;;;;74.30;19.70;;;;;;;2.06;85.49;99569.36;715992;1200;113492;-82
2022/01/06 13:09:19;;;;;;;38.90;16.30;;;;;;;1.75;86.38;99585.98;714647;1176;114214;-79
2022/01/06 15:55:18;;;;;;;24.03;10.70;;;;;;;1.42;86.04;99915.44;742262;1153;23101;-75
2022/01/06 16:10:21;;;;;;;15.60;6.63;;;;;;;1.43;84.70;99953.30;741670;1155;113648;-76
2022/01/06 16:25:24;;;;;;;7.60;3.08;;;;;;;1.49;83.43;99987.40;741225;1155;113020;-77
2022/01/06 16:40:28;;;;;;;10.60;4.27;;;;;;;1.41;82.08;100017.16;741884;1155;112877;-77
2022/01/06 16:55:39;;;;;;;31.40;12.48;;;;;;;1.26;80.69;100036.92;741590;1155;113164;-76
2022/01/06 17:10:44;;;;;;;65.30;21.03;;;;;;;0.85;80.45;100068.34;741243;1154;113452;-76
2022/01/06 17:26:18;;;;;;;25.43;9.63;;;;;;;0.51;79.55;100113.91;741335;1155;113399;-76
2022/01/06 17:41:37;;;;;;;35.38;14.43;;;;;;;0.22;79.03;100145.36;741065;1155;113346;-78
2022/01/06 17:56:57;;;;;;;31.85;13.90;;;;;;;0.14;80.43;100179.25;741371;1154;113676;-77
2022/01/06 18:12:12;;;;;;;12.33;5.50;;;;;;;-0.04;80.25;100211.05;740892;1154;113301;-77
2022/01/06 18:27:31;;;;;;;27.08;7.13;;;;;;;0.16;79.81;100229.05;741425;1153;113515;-78
2022/01/06 18:42:42;;;;;;;43.98;17.48;;;;;;;0.23;79.11;100267.49;741285;1153;113829;-74
2022/01/06 18:58:28;;;;;;;21.55;9.35;;;;;;;0.08;78.68;100289.63;742134;1154;113625;-76
2022/01/06 19:14:04;;;;;;;430.80;120.90;;;;;;;-0.10;79.90;100302.44;740987;1154;112590;-76
2022/01/06 19:29:20;;;;;;;188.10;57.13;;;;;;;-0.35;78.96;100321.53;740354;1157;113943;-73
2022/01/06 19:44:44;;;;;;;53.00;20.33;;;;;;;-0.53;79.46;100330.89;741086;1154;114003;-74
2022/01/06 20:00:19;;;;;;;29.53;11.23;;;;;;;-0.59;79.80;100333.70;741357;1155;113404;-75
2022/01/06 20:16:01;;;;;;;67.65;17.40;;;;;;;-0.73;80.60;100341.16;741681;1154;113902;-76
2022/01/06 20:31:08;;;;;;;31.75;11.83;;;;;;;-0.86;81.87;100364.84;741389;1155;113910;-76
2022/01/06 20:46:21;;;;;;;57.15;18.33;;;;;;;-0.87;81.75;100372.60;741227;1155;114359;-75
2022/01/06 21:01:28;;;;;;;39.17;12.93;;;;;;;-0.96;82.31;100368.67;742210;1155;114001;-74
2022/01/06 21:17:03;;;;;;;55.77;17.27;;;;;;;-1.05;83.83;100381.91;740999;1154;114316;-74
2022/01/06 21:32:21;;;;;;;36.50;10.43;;;;;;;-1.00;84.46;100390.30;741136;1155;114060;-74
2022/01/06 21:47:49;;;;;;;40.05;13.30;;;;;;;-0.97;84.68;100408.19;741460;1155;115513;-75
2022/01/06 22:03:12;;;;;;;50.28;16.55;;;;;;;-1.01;85.06;100424.67;741204;1155;114275;-75
2022/01/06 22:19:15;;;;;;;35.63;8.97;;;;;;;-1.09;85.63;100429.27;741548;1153;113978;-75
2022/01/06 22:34:44;;;;;;;38.43;11.20;;;;;;;-1.13;86.48;100431.11;741840;1155;113498;-75
2022/01/06 22:50:28;;;;;;;34.03;10.83;;;;;;;-1.11;87.24;100442.20;741302;1154;114356;-75
2022/01/06 23:06:12;;;;;;;54.28;16.40;;;;;;;-1.12;86.91;100452.54;740650;1154;113930;-74
2022/01/06 23:21:30;;;;;;;23.63;6.98;;;;;;;-1.24;86.91;100464.13;741139;1155;113877;-75
2022/01/06 23:36:38;;;;;;;37.45;11.25;;;;;;;-1.35;88.13;100470.52;744147;1162;113577;-73
2022/01/06 23:52:20;;;;;;;21.48;7.53;;;;;;;-1.26;87.96;100477.05;740467;1155;113977;-74
